This is the latest recevied weather packets stored in our database for station/object KM4RT-13. If no packets are shown the sender has not sent any weather packets the latest 10 day(s).
| Time | Temp. | Humidity | Pressure | Rain* | Wind** | Luminosity | Snow |
|---|---|---|---|---|---|---|---|
| 1778178456 | 18.33° C | 52% | 1014.2 hPa | 0 mm | - | 797 W/m² | - |
| 1778178156 | 18.33° C | 52% | 1014.1 hPa | 0 mm | - | 807 W/m² | - |
| 1778177854 | 17.78° C | 51% | 1014.3 hPa | 0 mm | - | 788 W/m² | - |
| 1778177550 | 17.78° C | 51% | 1014.4 hPa | 0 mm | - | 794 W/m² | - |
| 1778177246 | 17.78° C | 53% | 1014.5 hPa | 0 mm | - | 799 W/m² | - |
| 1778176943 | 17.78° C | 50% | 1014.6 hPa | 0 mm | - | 797 W/m² | - |
| 1778176639 | 17.22° C | 53% | 1014.5 hPa | 0 mm | - | 802 W/m² | - |
| 1778176336 | 17.78° C | 53% | 1014.7 hPa | 0 mm | - | 802 W/m² | - |
| 1778176033 | 17.22° C | 57% | 1014.8 hPa | 0 mm | - | 802 W/m² | - |
| 1778175732 | 17.78° C | 54% | 1014.5 hPa | 0 mm | - | 806 W/m² | - |
| 1778175429 | 17.22° C | 52% | 1014.9 hPa | 0 mm | - | 816 W/m² | - |
| 1778175126 | 17.22° C | 61% | 1014.9 hPa | 0 mm | - | 229 W/m² | - |
| 1778174822 | 17.22° C | 55% | 1014.8 hPa | 0 mm | - | 770 W/m² | - |
| 1778174519 | 16.67° C | 55% | 1014.9 hPa | 0 mm | - | 804 W/m² | - |
| 1778174219 | 16.67° C | 54% | 1014.8 hPa | 0 mm | - | 803 W/m² | - |
| 1778173916 | 17.22° C | 56% | 1015.1 hPa | 0 mm | - | 800 W/m² | - |
| 1778173613 | 17.22° C | 54% | 1014.9 hPa | 0 mm | - | 790 W/m² | - |
| 1778173311 | 16.67° C | 56% | 1014.7 hPa | 0 mm | - | 786 W/m² | - |
| 1778173006 | 16.67° C | 59% | 1015.2 hPa | 0 mm | - | 786 W/m² | - |
| 1778172703 | 16.67° C | 56% | 1015.4 hPa | 0 mm | - | 782 W/m² | - |
| 1778172399 | 17.22° C | 57% | 1015.5 hPa | 0 mm | - | 780 W/m² | - |
| 1778172095 | 16.67° C | 58% | 1015.5 hPa | 0 mm | - | 773 W/m² | - |
| 1778171787 | 16.67° C | 59% | 1015.4 hPa | 0 mm | - | 765 W/m² | - |
| 1778171485 | 16.67° C | 55% | 1015.4 hPa | 0 mm | - | 761 W/m² | - |
| 1778171181 | 16.67° C | 59% | 1015.4 hPa | 0 mm | - | 750 W/m² | - |
* Rain latest hour (hover to see other rain measurements)
** Current wind speed in m/s (hover to see current wind gust speed)